createdAt,value
2024-05-09T00:00:22.453Z,100471.72
2024-05-09T00:01:21.571Z,100475.34
2024-05-09T00:02:23.861Z,100465.06
2024-05-09T00:03:26.106Z,100478.95
2024-05-09T00:04:28.247Z,100484.22
2024-05-09T00:05:30.974Z,100473.10
2024-05-09T00:06:33.544Z,100481.79
2024-05-09T00:07:36.384Z,100480.35
2024-05-09T00:08:38.750Z,100474.50
2024-05-09T00:09:40.820Z,100480.03
2024-05-09T00:10:43.413Z,100477.62
2024-05-09T00:11:47.513Z,100475.02
2024-05-09T00:12:49.789Z,100476.91
2024-05-09T00:13:52.305Z,100476.85
2024-05-09T00:14:54.544Z,100482.86
2024-05-09T00:15:56.880Z,100482.81
2024-05-09T00:16:59.297Z,100481.16
2024-05-09T00:18:02.389Z,100485.59
2024-05-09T00:19:05.019Z,100487.40
2024-05-09T00:20:14.413Z,100487.40
2024-05-09T00:21:13.331Z,100484.16
2024-05-09T00:22:15.519Z,100484.16
2024-05-09T00:23:17.777Z,100486.04
2024-05-09T00:24:19.964Z,100486.78
2024-05-09T00:25:24.045Z,100494.96
2024-05-09T00:26:26.254Z,100489.94
2024-05-09T00:27:28.318Z,100495.20
2024-05-09T00:28:30.296Z,100493.98
2024-05-09T00:29:32.574Z,100490.50
2024-05-09T00:30:36.759Z,100493.88
2024-05-09T00:31:38.978Z,100487.91
2024-05-09T00:32:41.555Z,100497.30
2024-05-09T00:33:43.860Z,100496.12
2024-05-09T00:34:46.186Z,100492.76
2024-05-09T00:35:48.400Z,100494.47
2024-05-09T00:36:50.749Z,100496.17
2024-05-09T00:37:52.881Z,100497.95
2024-05-09T00:38:55.129Z,100493.64
2024-05-09T00:39:57.732Z,100491.83
2024-05-09T00:41:00.045Z,100494.47
2024-05-09T00:42:02.526Z,100494.47
2024-05-09T00:43:06.631Z,100503.13
2024-05-09T00:44:10.351Z,100499.66
2024-05-09T00:45:12.624Z,100501.52
2024-05-09T00:46:16.317Z,100502.52
2024-05-09T00:47:18.741Z,100504.50
2024-05-09T00:48:21.726Z,100504.50
2024-05-09T00:49:27.354Z,100498.44
2024-05-09T00:50:36.071Z,100501.86
2024-05-09T00:51:35.167Z,100501.86
2024-05-09T00:52:37.986Z,100503.73
2024-05-09T00:53:40.297Z,100507.34
2024-05-09T00:54:42.679Z,100497.91
2024-05-09T00:55:47.205Z,100507.48
2024-05-09T00:56:51.968Z,100512.67
2024-05-09T00:57:54.603Z,100511.76
2024-05-09T00:58:57.367Z,100516.06
2024-05-09T00:59:59.914Z,100508.48
2024-05-09T01:01:03.313Z,100509.45
2024-05-09T01:02:06.219Z,100510.43
2024-05-09T01:03:11.018Z,100504.28
2024-05-09T01:04:13.940Z,100509.70
2024-05-09T01:05:16.194Z,100513.30
2024-05-09T01:06:20.771Z,100514.23
2024-05-09T01:07:24.288Z,100520.30
2024-05-09T01:08:27.121Z,100520.30
2024-05-09T01:09:29.760Z,100522.84
2024-05-09T01:10:34.892Z,100514.23
2024-05-09T01:11:40.402Z,100518.63
2024-05-09T01:12:42.746Z,100513.58
2024-05-09T01:13:45.666Z,100521.35
2024-05-09T01:14:47.808Z,100524.87
2024-05-09T01:15:51.920Z,100519.03
2024-05-09T01:16:54.529Z,100519.88
2024-05-09T01:17:57.857Z,100512.05
2024-05-09T01:19:02.166Z,100514.73
2024-05-09T01:20:06.410Z,100519.17
2024-05-09T01:21:09.535Z,100520.00
2024-05-09T01:22:12.106Z,100526.20
2024-05-09T01:23:16.035Z,100522.80
2024-05-09T01:24:18.528Z,100525.31
2024-05-09T01:25:22.852Z,100523.73
2024-05-09T01:26:25.315Z,100519.39
2024-05-09T01:27:27.359Z,100528.16
2024-05-09T01:28:29.752Z,100520.35
2024-05-09T01:29:32.025Z,100524.56
2024-05-09T01:30:36.826Z,100520.22
2024-05-09T01:31:38.593Z,100524.61
2024-05-09T01:32:40.923Z,100522.98
2024-05-09T01:33:43.134Z,100522.02
2024-05-09T01:34:45.365Z,100512.50
2024-05-09T01:35:47.402Z,100529.00
2024-05-09T01:36:49.656Z,100516.34
2024-05-09T01:37:52.613Z,100520.77
2024-05-09T01:38:54.919Z,100516.47
2024-05-09T01:39:57.374Z,100519.89
2024-05-09T01:40:59.726Z,100525.27
2024-05-09T01:42:02.020Z,100522.68
2024-05-09T01:43:04.887Z,100523.59
2024-05-09T01:44:07.327Z,100522.03
2024-05-09T01:45:10.400Z,100523.75
2024-05-09T01:46:14.948Z,100524.78
2024-05-09T01:47:17.406Z,100530.91
2024-05-09T01:48:21.981Z,100530.09
2024-05-09T01:49:24.308Z,100522.27
2024-05-09T01:50:37.373Z,100527.28
2024-05-09T01:51:30.902Z,100527.28
2024-05-09T01:52:34.903Z,100529.80
2024-05-09T01:53:37.284Z,100524.73
2024-05-09T01:54:40.073Z,100523.98
2024-05-09T01:55:43.365Z,100527.37
2024-05-09T01:56:46.150Z,100525.69
2024-05-09T01:57:48.191Z,100532.76
2024-05-09T01:58:50.392Z,100518.04
2024-05-09T01:59:52.722Z,100533.59
2024-05-09T02:00:55.066Z,100531.78
2024-05-09T02:01:58.165Z,100533.48
2024-05-09T02:03:00.540Z,100537.78
2024-05-09T02:04:03.147Z,100531.73
2024-05-09T02:05:06.299Z,100539.68
2024-05-09T02:06:11.602Z,100538.91
2024-05-09T02:07:13.978Z,100539.64
2024-05-09T02:08:18.675Z,100537.02
2024-05-09T02:09:21.354Z,100541.36
2024-05-09T02:10:31.691Z,100541.39
2024-05-09T02:11:27.771Z,100539.61
2024-05-09T02:12:30.501Z,100540.30
2024-05-09T02:13:32.574Z,100542.01
2024-05-09T02:14:34.858Z,100542.01
2024-05-09T02:15:37.213Z,100544.48
2024-05-09T02:16:39.594Z,100550.46
2024-05-09T02:17:41.876Z,100548.78
2024-05-09T02:18:44.492Z,100551.33
2024-05-09T02:19:46.650Z,100541.75
2024-05-09T02:20:48.887Z,100559.82
2024-05-09T02:21:51.529Z,100553.05
2024-05-09T02:22:53.773Z,100553.95
2024-05-09T02:23:55.993Z,100552.14
2024-05-09T02:24:58.177Z,100561.69
2024-05-09T02:27:02.851Z,100562.45
2024-05-09T02:28:05.747Z,100562.37
2024-05-09T02:29:08.353Z,100561.45
2024-05-09T02:30:18.828Z,100564.80
2024-05-09T02:31:16.469Z,100567.43
2024-05-09T02:32:18.920Z,100562.29
2024-05-09T02:33:21.661Z,100564.92
2024-05-09T02:34:24.285Z,100559.90
2024-05-09T02:35:26.842Z,100566.97
2024-05-09T02:36:29.622Z,100571.27
2024-05-09T02:37:31.639Z,100560.13
2024-05-09T02:38:36.705Z,100565.19
2024-05-09T02:39:39.305Z,100563.55
2024-05-09T02:40:41.982Z,100568.76
2024-05-09T02:41:44.139Z,100575.71
2024-05-09T02:42:47.071Z,100575.64
2024-05-09T02:43:49.356Z,100579.94
2024-05-09T02:44:51.478Z,100577.31
2024-05-09T02:45:53.594Z,100578.16
2024-05-09T02:46:55.981Z,100582.42
2024-05-09T02:47:58.818Z,100579.83
2024-05-09T02:49:01.451Z,100584.89
2024-05-09T02:50:06.011Z,100576.30
2024-05-09T02:51:08.500Z,100591.02
2024-05-09T02:52:10.918Z,100573.56
2024-05-09T02:53:14.589Z,100573.56
2024-05-09T02:54:17.303Z,100581.28
2024-05-09T02:55:21.368Z,100575.16
2024-05-09T02:56:23.794Z,100583.69
2024-05-09T02:57:25.849Z,100578.47
2024-05-09T02:58:28.132Z,100580.09
2024-05-09T02:59:30.152Z,100589.46
2024-05-09T03:00:39.126Z,100581.01
2024-05-09T03:01:36.803Z,100592.16
2024-05-09T03:02:42.653Z,100594.64
2024-05-09T03:03:47.218Z,100587.67
2024-05-09T03:04:49.544Z,100596.27
2024-05-09T03:05:52.058Z,100589.34
2024-05-09T03:06:54.163Z,100593.64
2024-05-09T03:07:56.472Z,100610.02
2024-05-09T03:09:00.227Z,100597.06
2024-05-09T03:10:03.478Z,100600.53
2024-05-09T03:11:06.965Z,100605.75
2024-05-09T03:12:09.230Z,100607.38
2024-05-09T03:13:14.739Z,100609.06
2024-05-09T03:14:18.341Z,100605.59
2024-05-09T03:15:22.770Z,100615.91
2024-05-09T03:16:25.041Z,100613.24
2024-05-09T03:17:27.471Z,100613.24
2024-05-09T03:18:30.109Z,100611.48
2024-05-09T03:19:34.714Z,100611.48
2024-05-09T03:20:37.554Z,100609.73
2024-05-09T03:21:39.837Z,100619.25
2024-05-09T03:22:42.098Z,100614.31
2024-05-09T03:23:44.578Z,100610.77
2024-05-09T03:24:47.383Z,100613.24
2024-05-09T03:25:49.527Z,100622.59
2024-05-09T03:26:51.980Z,100612.12
2024-05-09T03:27:54.126Z,100619.09
2024-05-09T03:28:56.631Z,100612.12
2024-05-09T03:29:58.974Z,100616.41
2024-05-09T03:31:01.775Z,100608.56
2024-05-09T03:32:04.847Z,100613.78
2024-05-09T03:33:10.003Z,100611.15
2024-05-09T03:34:12.861Z,100615.49
2024-05-09T03:35:18.451Z,100614.53
2024-05-09T03:36:21.847Z,100610.19
2024-05-09T03:37:24.937Z,100610.19
2024-05-09T03:38:27.133Z,100622.12
2024-05-09T03:39:29.299Z,100611.64
2024-05-09T03:40:31.763Z,100613.22
2024-05-09T03:41:34.402Z,100620.03
2024-05-09T03:42:38.980Z,100613.91
2024-05-09T03:43:43.115Z,100621.55
2024-05-09T03:44:45.329Z,100613.69
2024-05-09T03:45:49.878Z,100619.61
2024-05-09T03:46:52.214Z,100620.39
2024-05-09T03:47:54.601Z,100612.53
2024-05-09T03:48:57.506Z,100615.91
2024-05-09T03:50:00.816Z,100615.86
2024-05-09T03:51:03.381Z,100619.38
2024-05-09T03:52:05.843Z,100619.38
2024-05-09T03:53:12.994Z,100619.31
2024-05-09T03:54:15.211Z,100619.33
2024-05-09T03:55:18.428Z,100622.73
2024-05-09T03:56:20.697Z,100627.84
2024-05-09T03:57:22.772Z,100619.12
2024-05-09T03:58:24.720Z,100625.05
2024-05-09T03:59:26.986Z,100632.83
2024-05-09T04:00:36.953Z,100633.61
2024-05-09T04:01:35.284Z,100630.13
2024-05-09T04:02:41.320Z,100624.84
2024-05-09T04:03:43.843Z,100624.02
2024-05-09T04:04:46.579Z,100614.67
2024-05-09T04:05:48.835Z,100614.67
2024-05-09T04:06:51.208Z,100628.32
2024-05-09T04:07:54.474Z,100624.80
2024-05-09T04:08:56.497Z,100634.39
2024-05-09T04:09:58.756Z,100636.98
2024-05-09T04:11:01.212Z,100634.53
2024-05-09T04:12:06.880Z,100629.26
2024-05-09T04:13:09.680Z,100635.27
2024-05-09T04:14:11.771Z,100639.04
2024-05-09T04:15:14.717Z,100641.48
2024-05-09T04:16:16.972Z,100634.45
2024-05-09T04:17:19.239Z,100636.20
2024-05-09T04:18:21.547Z,100636.30
2024-05-09T04:19:24.437Z,100641.29
2024-05-09T04:20:37.220Z,100632.58
2024-05-09T04:21:32.977Z,100626.50
2024-05-09T04:22:35.093Z,100637.71
2024-05-09T04:23:38.583Z,100641.34
2024-05-09T04:24:42.475Z,100630.83
2024-05-09T04:25:45.721Z,100634.19
2024-05-09T04:26:54.665Z,100628.84
2024-05-09T04:27:57.637Z,100639.96
2024-05-09T04:29:00.330Z,100631.29
2024-05-09T04:30:06.184Z,100633.89
2024-05-09T04:31:08.487Z,100642.56
2024-05-09T04:32:10.841Z,100643.44
2024-05-09T04:33:14.677Z,100635.75
2024-05-09T04:34:18.159Z,100636.53
2024-05-09T04:35:21.929Z,100638.98
2024-05-09T04:36:24.818Z,100645.83
2024-05-09T04:37:27.399Z,100636.27
2024-05-09T04:38:30.467Z,100639.75
2024-05-09T04:39:33.075Z,100637.16
2024-05-09T04:40:37.252Z,100641.58
2024-05-09T04:41:39.758Z,100645.25
2024-05-09T04:42:42.017Z,100644.37
2024-05-09T04:43:44.234Z,100646.28
2024-05-09T04:44:46.710Z,100653.23
2024-05-09T04:45:50.255Z,100648.10
2024-05-09T04:46:53.231Z,100650.59
2024-05-09T04:47:57.873Z,100652.30
2024-05-09T04:49:01.036Z,100650.53
2024-05-09T04:50:07.137Z,100647.27
2024-05-09T04:51:10.427Z,100647.27
2024-05-09T04:52:13.005Z,100656.77
2024-05-09T04:53:16.622Z,100646.28
2024-05-09T04:54:26.263Z,100649.61
2024-05-09T04:55:26.906Z,100652.83
2024-05-09T04:56:29.777Z,100650.49
2024-05-09T04:57:31.896Z,100660.83
2024-05-09T04:58:34.680Z,100656.27
2024-05-09T04:59:37.054Z,100653.50
2024-05-09T05:00:40.607Z,100655.91
2024-05-09T05:01:43.503Z,100654.97
2024-05-09T05:02:45.660Z,100657.45
2024-05-09T05:03:48.364Z,100652.27
2024-05-09T05:04:51.349Z,100653.09
2024-05-09T05:05:54.180Z,100656.41
2024-05-09T05:06:58.378Z,100662.33
2024-05-09T05:08:00.794Z,100653.61
2024-05-09T05:09:03.349Z,100654.55
2024-05-09T05:10:09.324Z,100655.27
2024-05-09T05:11:13.598Z,100656.98
2024-05-09T05:12:34.926Z,100663.06
2024-05-09T05:13:40.137Z,100656.19
2024-05-09T05:14:41.410Z,100655.27
2024-05-09T05:15:43.655Z,100661.41
2024-05-09T05:16:46.470Z,100659.56
2024-05-09T05:17:49.166Z,100661.22
2024-05-09T05:18:51.495Z,100654.43
2024-05-09T05:19:54.202Z,100654.22
2024-05-09T05:20:57.642Z,100662.89
2024-05-09T05:21:59.859Z,100659.47
2024-05-09T05:23:02.195Z,100665.91
2024-05-09T05:24:04.778Z,100664.05
2024-05-09T05:25:06.873Z,100669.02
2024-05-09T05:26:10.267Z,100661.95
2024-05-09T05:27:12.849Z,100670.63
2024-05-09T05:28:20.821Z,100665.66
2024-05-09T05:29:23.048Z,100669.86
2024-05-09T05:30:29.221Z,100676.30
2024-05-09T05:31:29.446Z,100671.11
2024-05-09T05:32:32.011Z,100670.38
2024-05-09T05:33:34.897Z,100667.06
2024-05-09T05:34:37.537Z,100675.62
2024-05-09T05:35:40.910Z,100679.83
2024-05-09T05:36:43.457Z,100679.62
2024-05-09T05:37:45.431Z,100686.80
2024-05-09T05:38:47.764Z,100678.16
2024-05-09T05:39:50.860Z,100679.78
2024-05-09T05:40:53.206Z,100681.34
2024-05-09T05:41:55.673Z,100679.47
2024-05-09T05:42:58.024Z,100682.94
2024-05-09T05:44:00.276Z,100674.27
2024-05-09T05:45:02.506Z,100679.41
2024-05-09T05:46:04.746Z,100673.18
2024-05-09T05:47:06.937Z,100675.83
2024-05-09T05:48:09.297Z,100682.63
2024-05-09T05:49:11.673Z,100675.50
2024-05-09T05:50:23.805Z,100678.92
2024-05-09T05:51:18.012Z,100677.05
2024-05-09T05:52:21.469Z,100682.07
2024-05-09T05:53:23.980Z,100675.03
2024-05-09T05:54:26.240Z,100676.64
2024-05-09T05:55:28.671Z,100679.95
2024-05-09T05:56:30.888Z,100679.45
2024-05-09T05:57:33.450Z,100678.41
2024-05-09T05:58:35.593Z,100676.52
2024-05-09T05:59:38.127Z,100684.09
2024-05-09T06:00:41.726Z,100678.00
2024-05-09T06:01:44.854Z,100684.14
2024-05-09T06:02:47.656Z,100677.94
2024-05-09T06:03:50.504Z,100682.31
2024-05-09T06:04:53.121Z,100678.00
2024-05-09T06:05:55.501Z,100677.23
2024-05-09T06:06:57.906Z,100681.50
2024-05-09T06:08:00.449Z,100671.74
2024-05-09T06:09:02.945Z,100675.05
2024-05-09T06:10:11.439Z,100680.05
2024-05-09T06:11:10.665Z,100674.67
2024-05-09T06:12:13.232Z,100671.84
2024-05-09T06:13:15.777Z,100677.98
2024-05-09T06:14:18.185Z,100675.39
2024-05-09T06:15:20.355Z,100678.75
2024-05-09T06:16:23.012Z,100682.06
2024-05-09T06:17:25.354Z,100684.52
2024-05-09T06:18:27.712Z,100681.73
2024-05-09T06:19:30.355Z,100680.75
2024-05-09T06:20:36.487Z,100684.97
2024-05-09T06:21:37.508Z,100688.95
2024-05-09T06:22:39.741Z,100678.95
2024-05-09T06:23:46.409Z,100678.77
2024-05-09T06:24:48.807Z,100682.95
2024-05-09T06:25:51.728Z,100679.29
2024-05-09T06:26:54.385Z,100682.42
2024-05-09T06:27:56.652Z,100681.36
2024-05-09T06:29:01.248Z,100692.39
2024-05-09T06:30:05.197Z,100688.97
2024-05-09T06:31:07.421Z,100681.98
2024-05-09T06:32:09.530Z,100680.36
2024-05-09T06:33:13.804Z,100681.36
2024-05-09T06:34:18.358Z,100677.98
2024-05-09T06:35:20.992Z,100681.53
2024-05-09T06:36:24.230Z,100685.03
2024-05-09T06:37:27.062Z,100685.84
2024-05-09T06:38:29.195Z,100686.42
2024-05-09T06:39:31.311Z,100686.31
2024-05-09T06:40:37.716Z,100689.64
2024-05-09T06:41:38.476Z,100688.56
2024-05-09T06:42:41.106Z,100685.95
2024-05-09T06:43:43.703Z,100688.64
2024-05-09T06:44:47.816Z,100683.36
2024-05-09T06:45:54.025Z,100687.48
2024-05-09T06:46:59.973Z,100683.80
2024-05-09T06:48:03.093Z,100680.27
2024-05-09T06:49:08.003Z,100688.19
2024-05-09T06:50:19.630Z,100685.58
2024-05-09T06:51:15.184Z,100685.22
2024-05-09T06:52:18.763Z,100692.05
2024-05-09T06:53:24.185Z,100689.32
2024-05-09T06:54:26.593Z,100689.02
2024-05-09T06:55:29.486Z,100687.91
2024-05-09T06:56:32.702Z,100688.83
2024-05-09T06:57:34.976Z,100693.27
2024-05-09T06:58:37.251Z,100688.45
2024-05-09T06:59:39.699Z,100692.81
2024-05-09T07:00:42.649Z,100686.73
2024-05-09T07:01:45.464Z,100688.27
2024-05-09T07:02:47.987Z,100688.56
2024-05-09T07:03:50.250Z,100685.83
2024-05-09T07:04:53.159Z,100688.37
2024-05-09T07:05:55.621Z,100692.62
2024-05-09T07:06:57.735Z,100682.27
2024-05-09T07:07:59.772Z,100683.55
2024-05-09T07:09:01.975Z,100678.17
2024-05-09T07:10:07.726Z,100690.97
2024-05-09T07:11:10.498Z,100691.79
2024-05-09T07:12:13.998Z,100684.58
2024-05-09T07:13:16.474Z,100686.59
2024-05-09T07:14:18.691Z,100691.87
2024-05-09T07:15:21.008Z,100689.08
2024-05-09T07:16:23.371Z,100683.93
2024-05-09T07:17:25.695Z,100686.28
2024-05-09T07:18:28.153Z,100688.67
2024-05-09T07:19:30.610Z,100679.66
2024-05-09T07:20:35.106Z,100689.73
2024-05-09T07:21:37.825Z,100689.59
2024-05-09T07:22:40.044Z,100688.44
2024-05-09T07:23:43.730Z,100689.19
2024-05-09T07:24:46.255Z,100686.73
2024-05-09T07:25:48.522Z,100693.93
2024-05-09T07:26:50.949Z,100687.02
2024-05-09T07:27:53.005Z,100695.75
2024-05-09T07:28:55.481Z,100692.22
2024-05-09T07:29:58.418Z,100686.09
2024-05-09T07:31:00.739Z,100683.31
2024-05-09T07:32:03.341Z,100699.69
2024-05-09T07:33:05.716Z,100695.15
2024-05-09T07:34:10.215Z,100683.92
2024-05-09T07:35:13.405Z,100692.34
2024-05-09T07:36:15.840Z,100687.05
2024-05-09T07:37:18.383Z,100688.64
2024-05-09T07:38:20.823Z,100692.83
2024-05-09T07:39:24.033Z,100685.82
2024-05-09T07:40:33.307Z,100684.11
2024-05-09T07:41:31.505Z,100692.83
2024-05-09T07:42:33.695Z,100687.28
2024-05-09T07:43:36.102Z,100689.59
2024-05-09T07:44:38.931Z,100691.72
2024-05-09T07:45:50.710Z,100683.91
2024-05-09T07:47:48.489Z,100681.42
2024-05-09T07:49:13.684Z,100685.56
2024-05-09T07:50:35.403Z,100683.83
2024-05-09T07:51:33.071Z,100674.92
2024-05-09T07:53:22.148Z,100676.31
2024-05-09T07:53:37.188Z,100688.15
2024-05-09T07:54:16.763Z,100680.81
2024-05-09T07:55:21.450Z,100683.69
2024-05-09T07:56:24.684Z,100686.11
2024-05-09T07:57:28.029Z,100684.11
2024-05-09T07:58:30.246Z,100690.13
2024-05-09T07:59:36.102Z,100682.82
2024-05-09T08:00:36.616Z,100684.17
2024-05-09T08:01:40.219Z,100683.91
2024-05-09T08:02:42.493Z,100682.94
2024-05-09T08:03:44.946Z,100677.11
2024-05-09T08:04:47.868Z,100682.31
2024-05-09T08:05:56.605Z,100677.86
2024-05-09T08:06:59.179Z,100679.29
2024-05-09T08:08:01.449Z,100681.47
2024-05-09T08:09:08.034Z,100684.66
2024-05-09T08:10:10.683Z,100687.20
2024-05-09T08:11:12.842Z,100689.66
2024-05-09T08:12:15.439Z,100686.05
2024-05-09T08:13:17.661Z,100686.95
2024-05-09T08:14:20.039Z,100686.11
2024-05-09T08:15:23.997Z,100691.89
2024-05-09T08:16:26.412Z,100689.77
2024-05-09T08:17:29.067Z,100686.44
2024-05-09T08:18:31.892Z,100680.01
2024-05-09T08:19:36.243Z,100676.23
2024-05-09T08:20:39.810Z,100683.43
2024-05-09T08:21:42.015Z,100676.23
2024-05-09T08:22:45.535Z,100682.73
2024-05-09T08:23:47.648Z,100679.72
2024-05-09T08:24:49.956Z,100674.37
2024-05-09T08:25:55.194Z,100678.91
2024-05-09T08:26:57.489Z,100679.66
2024-05-09T08:27:59.717Z,100679.59
2024-05-09T08:29:02.271Z,100673.27
2024-05-09T08:30:07.913Z,100672.00
2024-05-09T08:31:11.287Z,100674.23
2024-05-09T08:32:13.778Z,100674.70
2024-05-09T08:33:16.342Z,100669.29
2024-05-09T08:34:19.057Z,100668.48
2024-05-09T08:35:21.778Z,100659.63
2024-05-09T08:36:24.356Z,100670.67
2024-05-09T08:37:31.051Z,100674.66
2024-05-09T08:38:30.863Z,100666.61
2024-05-09T08:39:33.005Z,100665.91
2024-05-09T08:40:37.344Z,100665.80
2024-05-09T08:41:42.171Z,100662.06
2024-05-09T08:42:50.141Z,100661.72
2024-05-09T08:43:52.487Z,100651.82
2024-05-09T08:44:55.140Z,100661.48
2024-05-09T08:45:58.898Z,100656.13
2024-05-09T08:47:05.717Z,100654.99
2024-05-09T08:48:09.071Z,100660.02
2024-05-09T08:49:13.940Z,100656.91
2024-05-09T08:50:28.748Z,100653.09
2024-05-09T08:51:22.106Z,100650.02
2024-05-09T08:52:24.440Z,100642.19
2024-05-09T08:53:27.250Z,100652.72
2024-05-09T08:54:30.226Z,100652.38
2024-05-09T08:55:37.278Z,100648.62
2024-05-09T08:56:45.069Z,100649.67
2024-05-09T08:57:48.174Z,100652.28
2024-05-09T08:58:54.071Z,100648.45
2024-05-09T08:59:59.851Z,100647.30
2024-05-09T09:01:04.412Z,100645.77
2024-05-09T09:02:10.622Z,100644.94
2024-05-09T09:03:18.440Z,100646.43
2024-05-09T09:04:23.119Z,100649.84
2024-05-09T09:05:31.249Z,100639.75
2024-05-09T09:06:35.204Z,100640.55
2024-05-09T09:07:39.466Z,100644.62
2024-05-09T09:08:42.341Z,100638.01
2024-05-09T09:09:46.869Z,100652.45
2024-05-09T09:10:52.800Z,100641.58
2024-05-09T09:11:55.037Z,100638.54
2024-05-09T09:13:02.856Z,100645.34
2024-05-09T09:14:05.042Z,100639.08
2024-05-09T09:15:07.516Z,100644.02
2024-05-09T09:16:10.697Z,100641.27
2024-05-09T09:17:15.379Z,100631.61
2024-05-09T09:18:18.675Z,100633.20
2024-05-09T09:19:23.247Z,100634.16
2024-05-09T09:20:34.078Z,100635.56
2024-05-09T09:21:31.022Z,100634.25
2024-05-09T09:22:34.234Z,100634.25
2024-05-09T09:23:38.280Z,100628.48
2024-05-09T09:24:40.944Z,100637.34
2024-05-09T09:25:43.075Z,100634.77
2024-05-09T09:26:45.372Z,100634.77
2024-05-09T09:27:48.034Z,100635.98
2024-05-09T09:28:51.133Z,100625.98
2024-05-09T09:29:55.450Z,100626.20
2024-05-09T09:31:02.469Z,100622.17
2024-05-09T09:32:06.828Z,100617.78
2024-05-09T09:33:10.224Z,100620.40
2024-05-09T09:34:12.875Z,100620.17
2024-05-09T09:35:16.725Z,100609.05
2024-05-09T09:36:19.393Z,100608.92
2024-05-09T09:37:24.944Z,100609.84
2024-05-09T09:38:30.840Z,100615.70
2024-05-09T09:39:36.534Z,100616.50
2024-05-09T09:40:46.856Z,100615.70
2024-05-09T09:41:48.366Z,100612.02
2024-05-09T09:42:56.700Z,100618.47
2024-05-09T09:44:01.295Z,100617.22
2024-05-09T09:45:05.722Z,100624.91
2024-05-09T09:46:12.459Z,100619.57
2024-05-09T09:47:15.848Z,100630.13
2024-05-09T09:48:19.594Z,100619.89
2024-05-09T09:49:25.488Z,100630.13
2024-05-09T09:50:34.222Z,100624.39
2024-05-09T09:51:32.755Z,100622.76
2024-05-09T09:52:35.865Z,100629.40
2024-05-09T09:53:39.259Z,100625.77
2024-05-09T09:54:44.555Z,100609.11
2024-05-09T09:55:47.974Z,100618.20
2024-05-09T09:56:50.818Z,100618.05
2024-05-09T09:57:55.408Z,100615.97
2024-05-09T09:59:00.952Z,100606.72
2024-05-09T10:00:09.404Z,100607.88
2024-05-09T10:01:10.211Z,100618.22
2024-05-09T10:02:13.641Z,100609.03
2024-05-09T10:03:16.718Z,100605.86
2024-05-09T10:04:19.577Z,100612.47
2024-05-09T10:05:23.042Z,100599.16
2024-05-09T10:06:28.280Z,100603.27
2024-05-09T10:07:32.116Z,100607.78
2024-05-09T10:08:35.747Z,100605.94
2024-05-09T10:09:39.433Z,100598.72
2024-05-09T10:10:46.964Z,100598.72
2024-05-09T10:11:52.433Z,100601.01
2024-05-09T10:13:09.408Z,100604.67
2024-05-09T10:14:12.066Z,100604.11
2024-05-09T10:15:17.857Z,100601.82
2024-05-09T10:16:23.766Z,100603.12
2024-05-09T10:17:26.324Z,100595.20
2024-05-09T10:18:34.144Z,100601.82
2024-05-09T10:19:36.299Z,100598.77
2024-05-09T10:20:39.911Z,100600.83
2024-05-09T10:21:48.769Z,100605.50
2024-05-09T10:22:51.306Z,100613.86
2024-05-09T10:23:59.426Z,100618.95
2024-05-09T10:25:07.125Z,100607.79
2024-05-09T10:26:09.560Z,100604.18
2024-05-09T10:27:11.916Z,100607.08
2024-05-09T10:28:15.644Z,100606.33
2024-05-09T10:29:18.882Z,100595.20
2024-05-09T10:30:29.818Z,100604.89
2024-05-09T10:31:31.647Z,100606.95
2024-05-09T10:32:39.190Z,100603.08
2024-05-09T10:33:48.706Z,100598.14
2024-05-09T10:35:18.165Z,100594.08
2024-05-09T10:36:25.504Z,100599.91
2024-05-09T10:37:29.717Z,100589.73
2024-05-09T10:38:32.159Z,100589.97
2024-05-09T10:39:36.547Z,100589.13
2024-05-09T10:40:41.085Z,100586.45
2024-05-09T10:41:44.375Z,100583.03
2024-05-09T10:42:46.658Z,100587.38
2024-05-09T10:43:50.742Z,100583.02
2024-05-09T10:44:53.294Z,100579.91
2024-05-09T10:45:55.983Z,100581.15
2024-05-09T10:46:58.864Z,100577.48
2024-05-09T10:48:01.436Z,100575.31
2024-05-09T10:49:07.166Z,100578.80
2024-05-09T10:50:18.051Z,100570.75
2024-05-09T10:51:13.776Z,100570.75
2024-05-09T10:52:23.644Z,100576.81
2024-05-09T10:53:25.977Z,100577.72
2024-05-09T10:54:36.572Z,100583.53
2024-05-09T10:55:38.972Z,100579.30
2024-05-09T10:56:42.017Z,100576.60
2024-05-09T10:57:44.681Z,100596.04
2024-05-09T10:58:47.530Z,100592.78
2024-05-09T10:59:50.304Z,100582.76
2024-05-09T11:00:57.182Z,100581.69
2024-05-09T11:02:02.809Z,100580.77
2024-05-09T11:03:05.484Z,100578.88
2024-05-09T11:04:08.130Z,100578.51
2024-05-09T11:05:10.623Z,100576.11
2024-05-09T11:06:18.063Z,100575.67
2024-05-09T11:07:21.309Z,100570.95
2024-05-09T11:08:24.688Z,100573.66
2024-05-09T11:09:27.059Z,100575.81
2024-05-09T11:10:33.816Z,100579.75
2024-05-09T11:11:34.072Z,100574.77
2024-05-09T11:12:36.768Z,100575.61
2024-05-09T11:13:40.356Z,100571.37
2024-05-09T11:14:53.535Z,100571.36
2024-05-09T11:15:56.039Z,100577.54
2024-05-09T11:17:08.599Z,100574.46
2024-05-09T11:18:15.005Z,100581.54
2024-05-09T11:19:19.405Z,100574.46
2024-05-09T11:20:29.116Z,100566.21
2024-05-09T11:21:26.644Z,100566.77
2024-05-09T11:22:36.055Z,100565.13
2024-05-09T11:23:38.547Z,100565.87
2024-05-09T11:24:41.029Z,100567.02
2024-05-09T11:25:51.848Z,100564.62
2024-05-09T11:26:58.331Z,100563.30
2024-05-09T11:28:01.224Z,100562.73
2024-05-09T11:29:03.856Z,100566.09
2024-05-09T11:30:14.321Z,100565.76
2024-05-09T11:31:15.030Z,100561.27
2024-05-09T11:32:21.020Z,100551.05
2024-05-09T11:33:23.275Z,100554.59
2024-05-09T11:34:25.958Z,100554.29
2024-05-09T11:35:28.961Z,100561.27
2024-05-09T11:36:31.792Z,100563.02
2024-05-09T11:37:36.830Z,100555.16
2024-05-09T11:38:38.396Z,100572.45
2024-05-09T11:39:40.773Z,100556.83
2024-05-09T11:40:43.507Z,100544.48
2024-05-09T11:41:46.061Z,100556.91
2024-05-09T11:42:50.819Z,100555.59
2024-05-09T11:43:52.641Z,100555.34
2024-05-09T11:44:55.053Z,100547.02
2024-05-09T11:45:58.153Z,100558.05
2024-05-09T11:47:00.765Z,100556.53
2024-05-09T11:48:03.891Z,100551.60
2024-05-09T11:49:06.424Z,100555.34
2024-05-09T11:50:15.976Z,100564.14
2024-05-09T11:51:13.946Z,100561.78
2024-05-09T11:52:16.694Z,100553.58
2024-05-09T11:53:19.082Z,100541.75
2024-05-09T11:54:21.522Z,100550.85
2024-05-09T11:55:28.060Z,100558.88
2024-05-09T11:56:30.224Z,100558.88
2024-05-09T11:57:32.704Z,100561.84
2024-05-09T11:58:37.982Z,100554.90
2024-05-09T11:59:40.294Z,100552.11
2024-05-09T12:00:42.962Z,100547.94
2024-05-09T12:01:45.691Z,100542.37
2024-05-09T12:02:48.229Z,100539.37
2024-05-09T12:03:50.959Z,100539.59
2024-05-09T12:04:54.315Z,100548.72
2024-05-09T12:05:56.671Z,100551.02